createdAt,value
2019-05-15T00:00:04.031Z,8.15
2019-05-15T00:02:32.568Z,8.11
2019-05-15T00:05:01.025Z,8.16
2019-05-15T00:07:29.407Z,8.19
2019-05-15T00:09:58.485Z,8.08
2019-05-15T00:12:25.057Z,7.97
2019-05-15T00:14:52.087Z,8.11
2019-05-15T00:17:19.961Z,7.79
2019-05-15T00:19:48.616Z,7.93
2019-05-15T00:22:15.696Z,7.89
2019-05-15T00:24:42.550Z,7.82
2019-05-15T00:27:10.428Z,7.87
2019-05-15T00:29:38.478Z,7.89
2019-05-15T00:32:05.529Z,7.80
2019-05-15T00:34:33.700Z,7.94
2019-05-15T00:37:00.856Z,7.94
2019-05-15T00:39:28.366Z,7.94
2019-05-15T00:41:55.564Z,7.83
2019-05-15T00:44:22.236Z,7.69
2019-05-15T00:46:49.242Z,7.75
2019-05-15T00:49:16.023Z,7.71
2019-05-15T00:51:42.969Z,7.73
2019-05-15T00:54:09.658Z,7.76
2019-05-15T00:56:38.697Z,7.83
2019-05-15T00:59:04.993Z,7.80
2019-05-15T01:01:31.760Z,7.68
2019-05-15T01:03:58.756Z,7.74
2019-05-15T01:06:28.294Z,7.53
2019-05-15T01:08:54.928Z,7.65
2019-05-15T01:11:21.788Z,7.81
2019-05-15T01:13:48.543Z,7.80
2019-05-15T01:16:15.484Z,7.80
2019-05-15T01:18:42.326Z,7.66
2019-05-15T01:21:09.168Z,7.67
2019-05-15T01:23:35.804Z,7.73
2019-05-15T01:26:02.738Z,7.60
2019-05-15T01:28:29.387Z,7.46
2019-05-15T01:30:56.418Z,7.64
2019-05-15T01:33:23.087Z,7.64
2019-05-15T01:35:50.103Z,7.52
2019-05-15T01:38:18.750Z,7.56
2019-05-15T01:40:45.488Z,7.53
2019-05-15T01:43:12.142Z,7.58
2019-05-15T01:45:39.571Z,7.72
2019-05-15T01:48:08.129Z,7.68
2019-05-15T01:50:34.990Z,7.63
2019-05-15T01:53:01.674Z,7.47
2019-05-15T01:55:29.375Z,7.57
2019-05-15T01:57:58.070Z,7.55
2019-05-15T02:00:24.625Z,7.57
2019-05-15T02:02:51.349Z,7.57
2019-05-15T02:05:18.768Z,7.43
2019-05-15T02:07:47.927Z,7.40
2019-05-15T02:10:14.822Z,7.43
2019-05-15T02:12:42.998Z,7.51
2019-05-15T02:15:09.899Z,7.39
2019-05-15T02:17:38.918Z,7.47
2019-05-15T02:20:05.115Z,7.38
2019-05-15T02:22:31.854Z,7.47
2019-05-15T02:24:59.118Z,7.40
2019-05-15T02:27:26.036Z,7.46
2019-05-15T02:29:52.746Z,7.47
2019-05-15T02:32:19.789Z,7.40
2019-05-15T02:34:49.744Z,7.40
2019-05-15T02:37:15.455Z,7.29
2019-05-15T02:39:42.029Z,7.41
2019-05-15T02:42:10.033Z,7.42
2019-05-15T02:44:40.082Z,7.39
2019-05-15T02:47:05.766Z,7.44
2019-05-15T02:49:33.052Z,7.33
2019-05-15T02:52:00.342Z,7.37
2019-05-15T02:54:30.023Z,7.35
2019-05-15T02:56:58.788Z,7.29
2019-05-15T02:59:24.352Z,7.36
2019-05-15T03:01:51.338Z,7.40
2019-05-15T03:04:20.276Z,7.34
2019-05-15T03:06:49.661Z,7.42
2019-05-15T03:09:18.500Z,7.38
2019-05-15T03:11:44.025Z,7.33
2019-05-15T03:14:10.962Z,7.37
2019-05-15T03:16:39.450Z,7.46
2019-05-15T03:19:09.699Z,7.40
2019-05-15T03:21:35.037Z,7.50
2019-05-15T03:24:01.848Z,7.45
2019-05-15T03:26:29.966Z,7.44
2019-05-15T03:28:59.075Z,7.43
2019-05-15T03:31:43.645Z,7.47
2019-05-15T03:33:55.056Z,7.45
2019-05-15T03:36:24.086Z,7.40
2019-05-15T03:38:51.084Z,7.52
2019-05-15T03:41:19.491Z,7.54
2019-05-15T03:43:49.656Z,7.60
2019-05-15T03:46:15.062Z,7.69
2019-05-15T03:48:42.145Z,7.75
2019-05-15T03:51:09.347Z,7.67
2019-05-15T03:53:39.896Z,7.77
2019-05-15T03:56:09.780Z,7.80
2019-05-15T03:58:39.711Z,7.84
2019-05-15T04:01:26.975Z,7.89
2019-05-15T04:03:35.095Z,8.03
2019-05-15T04:06:02.431Z,7.95
2019-05-15T04:08:30.181Z,8.06
2019-05-15T04:10:59.686Z,8.02
2019-05-15T04:13:29.887Z,8.24
2019-05-15T04:15:59.096Z,8.27
2019-05-15T04:18:24.293Z,8.29
2019-05-15T04:20:51.186Z,8.32
2019-05-15T04:23:21.718Z,8.41
2019-05-15T04:25:50.847Z,8.33
2019-05-15T04:28:19.287Z,8.40
2019-05-15T04:30:49.539Z,8.15
2019-05-15T04:33:19.690Z,8.07
2019-05-15T04:35:45.039Z,8.18
2019-05-15T04:38:13.162Z,8.25
2019-05-15T04:40:40.193Z,8.18
2019-05-15T04:43:09.986Z,8.28
2019-05-15T04:45:35.756Z,8.34
2019-05-15T04:48:02.848Z,8.40
2019-05-15T04:50:29.533Z,8.34
2019-05-15T04:52:59.055Z,8.30
2019-05-15T04:55:25.010Z,8.37
2019-05-15T04:57:52.491Z,8.41
2019-05-15T05:01:00.073Z,8.44
2019-05-15T05:03:29.475Z,8.39
2019-05-15T05:05:59.158Z,8.48
2019-05-15T05:08:28.970Z,8.55
2019-05-15T05:10:59.029Z,8.54
2019-05-15T05:13:28.414Z,8.48
2019-05-15T05:15:54.913Z,8.47
2019-05-15T05:18:22.364Z,8.51
2019-05-15T05:20:49.827Z,8.39
2019-05-15T05:23:19.231Z,8.42
2019-05-15T05:25:48.836Z,8.56
2019-05-15T05:28:17.997Z,8.59
2019-05-15T05:30:44.854Z,8.65
2019-05-15T05:33:11.559Z,8.73
2019-05-15T05:35:38.802Z,8.70
2019-05-15T05:38:07.795Z,8.75
2019-05-15T05:40:34.550Z,8.81
2019-05-15T05:43:01.485Z,8.73
2019-05-15T05:45:29.008Z,8.73
2019-05-15T05:47:57.997Z,8.78
2019-05-15T05:50:38.519Z,8.74
2019-05-15T05:53:08.661Z,8.74
2019-05-15T05:55:35.505Z,8.87
2019-05-15T05:58:02.726Z,8.88
2019-05-15T06:00:33.844Z,8.79
2019-05-15T06:03:00.916Z,8.92
2019-05-15T06:05:28.154Z,8.92
2019-05-15T06:07:55.016Z,8.98
2019-05-15T06:10:21.868Z,8.97
2019-05-15T06:12:49.084Z,8.99
2019-05-15T06:15:17.916Z,8.91
2019-05-15T06:17:44.876Z,8.91
2019-05-15T06:20:11.918Z,8.98
2019-05-15T06:22:38.968Z,8.97
2019-05-15T06:25:10.721Z,9.01
2019-05-15T06:27:34.908Z,9.04
2019-05-15T06:30:01.852Z,9.04
2019-05-15T06:32:29.039Z,9.07
2019-05-15T06:34:57.819Z,9.02
2019-05-15T06:37:24.509Z,9.00
2019-05-15T06:39:51.256Z,9.04
2019-05-15T06:42:18.793Z,9.07
2019-05-15T06:44:48.221Z,9.16
2019-05-15T06:47:14.756Z,9.20
2019-05-15T06:49:41.461Z,9.23
2019-05-15T06:52:08.868Z,9.18
2019-05-15T06:54:37.816Z,9.23
2019-05-15T06:57:04.840Z,9.19
2019-05-15T06:59:31.526Z,9.23
2019-05-15T07:01:59.380Z,9.17
2019-05-15T07:04:28.795Z,9.20
2019-05-15T07:06:58.310Z,9.24
2019-05-15T07:09:24.954Z,9.24
2019-05-15T07:11:51.806Z,9.29
2019-05-15T07:14:18.531Z,9.29
2019-05-15T07:16:48.478Z,9.32
2019-05-15T07:19:14.668Z,9.44
2019-05-15T07:21:41.640Z,9.55
2019-05-15T07:24:09.341Z,9.55
2019-05-15T07:26:38.932Z,9.61
2019-05-15T07:29:05.015Z,9.64
2019-05-15T07:31:32.108Z,9.67
2019-05-15T07:33:59.854Z,9.74
2019-05-15T07:36:28.805Z,9.70
2019-05-15T07:38:57.822Z,9.73
2019-05-15T07:41:24.389Z,9.81
2019-05-15T07:43:51.158Z,9.88
2019-05-15T07:46:18.438Z,9.84
2019-05-15T07:48:45.526Z,9.98
2019-05-15T07:51:12.680Z,10.00
2019-05-15T07:53:41.534Z,9.98
2019-05-15T07:56:11.589Z,10.05
2019-05-15T07:58:38.650Z,10.08
2019-05-15T08:01:05.708Z,10.03
2019-05-15T08:03:32.910Z,10.12
2019-05-15T08:06:02.968Z,10.12
2019-05-15T08:08:29.144Z,10.17
2019-05-15T08:10:57.973Z,10.17
2019-05-15T08:13:25.008Z,10.21
2019-05-15T08:15:51.856Z,10.28
2019-05-15T08:18:18.607Z,10.32
2019-05-15T08:20:48.623Z,10.36
2019-05-15T08:23:14.392Z,10.36
2019-05-15T08:25:41.103Z,10.38
2019-05-15T08:28:08.989Z,10.43
2019-05-15T08:30:38.123Z,10.39
2019-05-15T08:33:04.765Z,10.50
2019-05-15T08:35:31.667Z,10.62
2019-05-15T08:37:58.494Z,10.60
2019-05-15T08:40:25.634Z,10.61
2019-05-15T08:42:57.066Z,10.56
2019-05-15T08:45:21.137Z,10.57
2019-05-15T08:47:49.267Z,10.48
2019-05-15T08:50:18.294Z,10.52
2019-05-15T08:52:45.500Z,10.59
2019-05-15T08:55:12.656Z,10.77
2019-05-15T08:57:39.450Z,10.78
2019-05-15T09:00:09.311Z,10.79
2019-05-15T09:02:38.092Z,10.72
2019-05-15T09:05:04.476Z,10.88
2019-05-15T09:07:31.809Z,10.92
2019-05-15T09:09:59.111Z,10.87
2019-05-15T09:12:26.078Z,10.89
2019-05-15T09:14:52.926Z,11.01
2019-05-15T09:17:19.715Z,11.00
2019-05-15T09:19:48.199Z,11.09
2019-05-15T09:22:15.247Z,11.20
2019-05-15T09:24:42.098Z,11.14
2019-05-15T09:27:10.240Z,11.13
2019-05-15T09:29:38.048Z,11.13
2019-05-15T09:32:08.155Z,11.28
2019-05-15T09:34:47.869Z,11.35
2019-05-15T09:37:02.806Z,11.41
2019-05-15T09:39:29.753Z,11.60
2019-05-15T09:41:57.876Z,11.58
2019-05-15T09:44:24.929Z,11.67
2019-05-15T09:46:51.961Z,11.62
2019-05-15T09:49:18.923Z,11.51
2019-05-15T09:51:45.662Z,11.49
2019-05-15T09:54:12.658Z,11.56
2019-05-15T09:56:40.009Z,11.58
2019-05-15T09:59:08.894Z,11.63
2019-05-15T10:01:39.262Z,11.64
2019-05-15T10:04:09.796Z,11.85
2019-05-15T10:06:38.916Z,11.96
2019-05-15T10:09:08.851Z,11.91
2019-05-15T10:11:38.093Z,11.94
2019-05-15T10:14:04.148Z,11.97
2019-05-15T10:16:31.402Z,12.14
2019-05-15T10:18:58.462Z,12.10
2019-05-15T10:21:31.581Z,12.22
2019-05-15T10:23:53.881Z,12.17
2019-05-15T10:26:20.738Z,12.18
2019-05-15T10:28:49.309Z,12.27
2019-05-15T10:31:16.338Z,12.31
2019-05-15T10:33:43.009Z,12.26
2019-05-15T10:36:09.864Z,12.59
2019-05-15T10:38:39.238Z,12.75
2019-05-15T10:41:13.937Z,12.75
2019-05-15T10:43:34.843Z,12.76
2019-05-15T10:46:01.656Z,12.69
2019-05-15T10:48:29.459Z,12.64
2019-05-15T10:51:01.842Z,12.42
2019-05-15T10:53:26.049Z,12.41
2019-05-15T10:55:53.744Z,12.51
2019-05-15T10:58:22.067Z,12.61
2019-05-15T11:00:49.701Z,12.58
2019-05-15T11:03:19.603Z,12.57
2019-05-15T11:05:45.964Z,12.56
2019-05-15T11:08:13.102Z,12.68
2019-05-15T11:10:41.971Z,12.77
2019-05-15T11:13:08.958Z,12.83
2019-05-15T11:15:38.674Z,12.87
2019-05-15T11:18:04.452Z,12.90
2019-05-15T11:20:31.590Z,12.76
2019-05-15T11:22:59.078Z,12.71
2019-05-15T11:25:29.977Z,12.84
2019-05-15T11:27:54.743Z,12.87
2019-05-15T11:30:21.813Z,12.83
2019-05-15T11:32:49.143Z,12.87
2019-05-15T11:35:18.731Z,12.92
2019-05-15T11:37:47.075Z,12.88
2019-05-15T11:40:14.281Z,12.88
2019-05-15T11:42:41.271Z,12.97
2019-05-15T11:45:08.927Z,13.13
2019-05-15T11:47:35.939Z,13.21
2019-05-15T11:50:03.196Z,13.30
2019-05-15T11:52:29.850Z,13.38
2019-05-15T11:54:58.962Z,13.58
2019-05-15T11:57:41.799Z,13.62
2019-05-15T11:59:55.600Z,13.75
2019-05-15T12:02:22.936Z,13.86
2019-05-15T12:04:49.804Z,14.04
2019-05-15T12:07:18.246Z,13.99
2019-05-15T12:09:45.217Z,14.13
2019-05-15T12:12:12.275Z,14.25
2019-05-15T12:14:39.166Z,14.27
2019-05-15T12:17:14.729Z,14.11
2019-05-15T12:19:34.477Z,14.20
2019-05-15T12:22:01.299Z,14.35
2019-05-15T12:24:32.876Z,14.65
2019-05-15T12:27:07.346Z,14.61
2019-05-15T12:29:25.160Z,14.28
2019-05-15T12:31:53.442Z,14.01
2019-05-15T12:34:20.303Z,13.92
2019-05-15T12:39:20.808Z,14.21
2019-05-15T13:01:34.423Z,14.76
2019-05-15T13:04:01.367Z,15.05
2019-05-15T13:06:30.076Z,15.43
2019-05-15T13:08:59.476Z,15.38
2019-05-15T13:11:25.819Z,15.08
2019-05-15T13:13:52.444Z,14.71
2019-05-15T13:16:19.122Z,14.95
2019-05-15T13:18:47.981Z,15.64
2019-05-15T13:21:20.595Z,15.75
2019-05-15T13:23:45.241Z,15.46
2019-05-15T13:26:22.986Z,15.23
2019-05-15T13:28:40.735Z,15.11
2019-05-15T13:31:09.145Z,15.23
2019-05-15T13:33:38.425Z,15.24
2019-05-15T13:36:04.366Z,15.69
2019-05-15T13:38:31.102Z,15.59
2019-05-15T13:40:58.893Z,15.43
2019-05-15T13:43:25.849Z,15.19
2019-05-15T13:45:53.041Z,14.76
2019-05-15T13:48:20.107Z,14.69
2019-05-15T13:50:48.282Z,14.29
2019-05-15T13:53:15.648Z,14.25
2019-05-15T13:55:43.765Z,14.21
2019-05-15T13:58:10.626Z,13.95
2019-05-15T14:00:39.080Z,13.91
2019-05-15T14:03:06.092Z,13.89
2019-05-15T14:05:33.034Z,13.90
2019-05-15T14:07:59.626Z,13.78
2019-05-15T14:10:28.591Z,13.87
2019-05-15T14:12:55.816Z,14.03
2019-05-15T14:15:23.056Z,14.05
2019-05-15T14:17:50.118Z,14.11
2019-05-15T14:20:17.931Z,14.08
2019-05-15T14:22:44.771Z,14.00
2019-05-15T14:25:12.046Z,13.92
2019-05-15T14:27:40.065Z,13.98
2019-05-15T14:30:08.992Z,13.82
2019-05-15T14:32:39.073Z,13.78
2019-05-15T14:35:05.419Z,13.83
2019-05-15T14:37:32.482Z,13.71
2019-05-15T14:39:59.629Z,13.71
2019-05-15T14:42:29.129Z,13.47
2019-05-15T14:44:55.166Z,13.46
2019-05-15T14:47:22.399Z,13.31
2019-05-15T14:49:49.618Z,13.10
2019-05-15T14:52:17.933Z,12.92
2019-05-15T14:54:45.158Z,12.80
2019-05-15T14:57:11.931Z,12.65
2019-05-15T14:59:38.611Z,12.32
2019-05-15T15:02:05.441Z,12.36
2019-05-15T15:04:32.558Z,12.17
2019-05-15T15:06:59.587Z,11.97
2019-05-15T15:09:28.093Z,11.89
2019-05-15T15:11:55.320Z,11.88
2019-05-15T15:14:23.460Z,11.67
2019-05-15T15:16:50.542Z,11.68
2019-05-15T15:19:18.487Z,11.26
2019-05-15T15:21:45.311Z,11.26
2019-05-15T15:24:12.023Z,11.39
2019-05-15T15:26:39.264Z,11.18
2019-05-15T15:29:08.306Z,11.28
2019-05-15T15:31:35.927Z,10.99
2019-05-15T15:34:02.521Z,11.04
2019-05-15T15:36:29.260Z,11.09
2019-05-15T15:38:56.051Z,11.02
2019-05-15T15:41:22.838Z,10.83
2019-05-15T15:43:52.214Z,10.78
2019-05-15T15:46:19.515Z,10.75
2019-05-15T15:48:48.315Z,10.49
2019-05-15T15:51:14.735Z,10.52
2019-05-15T15:53:41.621Z,10.47
2019-05-15T15:56:10.586Z,10.28
2019-05-15T15:58:37.950Z,10.38
2019-05-15T16:01:04.724Z,10.37
2019-05-15T16:03:31.455Z,10.39
2019-05-15T16:05:58.129Z,10.40
2019-05-15T16:08:24.894Z,10.08
2019-05-15T16:10:51.582Z,10.02
2019-05-15T16:13:18.813Z,10.00
2019-05-15T16:15:45.496Z,9.94
2019-05-15T16:18:12.125Z,10.07
2019-05-15T16:20:39.565Z,10.02
2019-05-15T16:23:08.376Z,9.86
2019-05-15T16:25:34.849Z,9.84
2019-05-15T16:28:01.558Z,9.75
2019-05-15T16:30:28.617Z,9.84
2019-05-15T16:32:58.291Z,9.90
2019-05-15T16:35:24.175Z,9.77
2019-05-15T16:37:52.165Z,9.67
2019-05-15T16:40:19.109Z,9.71
2019-05-15T16:42:48.798Z,9.65
2019-05-15T16:45:16.366Z,9.56
2019-05-15T16:47:43.511Z,9.50
2019-05-15T16:50:10.888Z,9.56
2019-05-15T16:52:39.459Z,9.55
2019-05-15T16:55:09.237Z,9.49
2019-05-15T16:57:38.362Z,9.60
2019-05-15T17:00:05.023Z,9.53
2019-05-15T17:02:32.331Z,9.64
2019-05-15T17:04:59.304Z,9.58
2019-05-15T17:07:28.773Z,9.57
2019-05-15T17:09:55.236Z,9.59
2019-05-15T17:12:22.698Z,9.59
2019-05-15T17:14:49.901Z,9.48
2019-05-15T17:17:18.367Z,9.54
2019-05-15T17:19:45.400Z,9.54
2019-05-15T17:22:12.778Z,9.41
2019-05-15T17:24:40.189Z,9.31
2019-05-15T17:27:10.320Z,9.38
2019-05-15T17:29:38.469Z,9.33
2019-05-15T17:32:05.842Z,9.34
2019-05-15T17:34:32.787Z,9.40
2019-05-15T17:37:00.147Z,9.40
2019-05-15T17:39:34.620Z,9.46
2019-05-15T17:41:56.176Z,9.39
2019-05-15T17:44:23.848Z,9.36
2019-05-15T17:46:50.704Z,9.53
2019-05-15T17:49:19.097Z,9.60
2019-05-15T17:51:46.336Z,9.47
2019-05-15T17:54:13.682Z,9.49
2019-05-15T17:56:41.142Z,9.39
2019-05-15T17:59:08.644Z,9.41
2019-05-15T18:01:38.271Z,9.34
2019-05-15T18:04:05.331Z,9.37
2019-05-15T18:06:32.159Z,9.31
2019-05-15T18:08:59.452Z,9.33
2019-05-15T18:11:27.850Z,9.31
2019-05-15T18:13:54.884Z,9.32
2019-05-15T18:16:21.705Z,9.26
2019-05-15T18:18:48.586Z,9.23
2019-05-15T18:21:18.468Z,9.29
2019-05-15T18:23:45.558Z,9.30
2019-05-15T18:26:14.242Z,9.14
2019-05-15T18:28:41.010Z,9.22
2019-05-15T18:31:09.083Z,9.17
2019-05-15T18:33:35.885Z,9.28
2019-05-15T18:36:03.222Z,9.26
2019-05-15T18:38:30.142Z,9.27
2019-05-15T18:40:58.233Z,9.26
2019-05-15T18:43:25.728Z,9.27
2019-05-15T18:45:53.061Z,9.28
2019-05-15T18:48:21.597Z,9.32
2019-05-15T18:50:48.363Z,9.20
2019-05-15T18:53:15.654Z,9.21
2019-05-15T18:55:42.486Z,9.14
2019-05-15T18:58:09.391Z,9.16
2019-05-15T19:00:39.691Z,9.23
2019-05-15T19:03:16.696Z,9.23
2019-05-15T19:05:34.258Z,9.30
2019-05-15T19:08:02.222Z,9.27
2019-05-15T19:10:29.171Z,9.22
2019-05-15T19:13:00.318Z,9.25
2019-05-15T19:15:28.640Z,9.27
2019-05-15T19:17:58.380Z,9.23
2019-05-15T19:20:25.246Z,9.31
2019-05-15T19:22:53.881Z,9.22
2019-05-15T19:25:20.673Z,9.29
2019-05-15T19:27:47.722Z,9.25
2019-05-15T19:30:14.828Z,9.24
2019-05-15T19:32:41.757Z,9.27
2019-05-15T19:35:08.910Z,9.32
2019-05-15T19:37:38.327Z,9.26
2019-05-15T19:40:05.424Z,9.27
2019-05-15T19:42:32.756Z,9.31
2019-05-15T19:44:59.969Z,9.38
2019-05-15T19:47:26.980Z,9.34
2019-05-15T19:49:57.674Z,9.35
2019-05-15T19:52:24.624Z,9.31
2019-05-15T19:54:51.298Z,9.30
2019-05-15T19:57:18.708Z,9.39
2019-05-15T19:59:45.904Z,9.33
2019-05-15T20:02:12.984Z,9.37
2019-05-15T20:04:40.002Z,9.36
2019-05-15T20:07:08.013Z,9.42
2019-05-15T20:09:35.339Z,9.43
2019-05-15T20:12:02.279Z,9.44
2019-05-15T20:14:29.422Z,9.45
2019-05-15T20:16:58.783Z,9.46
2019-05-15T20:19:25.065Z,9.40
2019-05-15T20:21:52.442Z,9.48
2019-05-15T20:24:19.693Z,9.52
2019-05-15T20:26:48.624Z,9.54
2019-05-15T20:29:18.214Z,9.55
2019-05-15T20:31:45.216Z,9.51
2019-05-15T20:34:12.263Z,9.52
2019-05-15T20:36:39.408Z,9.57
2019-05-15T20:39:08.255Z,9.57
2019-05-15T20:41:34.837Z,9.57
2019-05-15T20:44:01.996Z,9.57
2019-05-15T20:46:29.104Z,9.55
2019-05-15T20:48:58.068Z,9.60
2019-05-15T20:51:24.974Z,9.60
2019-05-15T20:53:52.170Z,9.61
2019-05-15T20:56:19.380Z,9.66
2019-05-15T20:58:47.811Z,9.59
2019-05-15T21:01:18.078Z,9.62
2019-05-15T21:03:44.758Z,9.64
2019-05-15T21:06:12.683Z,9.63
2019-05-15T21:08:39.642Z,9.66
2019-05-15T21:11:11.305Z,9.64
2019-05-15T21:13:35.125Z,9.65
2019-05-15T21:16:01.785Z,9.67
2019-05-15T21:18:29.057Z,9.67
2019-05-15T21:20:56.852Z,9.69
2019-05-15T21:23:23.864Z,9.68
2019-05-15T21:25:50.727Z,9.70
2019-05-15T21:28:18.810Z,9.69
2019-05-15T21:30:45.619Z,9.70
2019-05-15T21:33:12.712Z,9.74
2019-05-15T21:35:39.606Z,9.76
2019-05-15T21:38:09.485Z,9.76
2019-05-15T21:40:38.550Z,9.77
2019-05-15T21:43:05.174Z,9.76
2019-05-15T21:45:32.242Z,9.78
2019-05-15T21:48:00.784Z,9.80
2019-05-15T21:50:28.325Z,9.81
2019-05-15T21:52:55.215Z,9.83
2019-05-15T21:55:22.053Z,9.84
2019-05-15T21:57:49.536Z,9.84
2019-05-15T22:00:19.872Z,9.86
2019-05-15T22:02:49.409Z,9.88
2019-05-15T22:05:18.429Z,9.90
2019-05-15T22:07:45.282Z,9.91
2019-05-15T22:10:12.499Z,9.93
2019-05-15T22:12:39.386Z,9.94
2019-05-15T22:15:08.925Z,9.95
2019-05-15T22:17:38.295Z,9.96
2019-05-15T22:20:04.607Z,9.98
2019-05-15T22:22:31.641Z,10.00
2019-05-15T22:24:58.533Z,10.00
2019-05-15T22:27:25.463Z,10.02
2019-05-15T22:29:52.709Z,10.03
2019-05-15T22:32:19.765Z,10.03
2019-05-15T22:34:48.078Z,10.04
2019-05-15T22:37:17.884Z,10.04
2019-05-15T22:39:44.026Z,10.04
2019-05-15T22:42:11.205Z,10.04
2019-05-15T22:44:38.538Z,10.06
2019-05-15T22:47:05.690Z,10.05
2019-05-15T22:49:33.550Z,10.04
2019-05-15T22:52:00.265Z,10.06
2019-05-15T22:54:28.107Z,10.03
2019-05-15T22:56:57.556Z,10.05
2019-05-15T22:59:23.922Z,10.06
2019-05-15T23:01:52.019Z,10.08
2019-05-15T23:04:18.680Z,10.08
2019-05-15T23:06:46.538Z,10.07
2019-05-15T23:09:13.587Z,10.10
2019-05-15T23:11:40.412Z,10.11
2019-05-15T23:14:08.417Z,10.12
2019-05-15T23:16:35.533Z,10.14
2019-05-15T23:19:02.384Z,10.14
2019-05-15T23:21:29.346Z,10.17
2019-05-15T23:23:56.376Z,10.18
2019-05-15T23:26:23.244Z,10.19
2019-05-15T23:28:50.209Z,10.20
2019-05-15T23:31:18.906Z,10.23
2019-05-15T23:33:48.026Z,10.25
2019-05-15T23:36:14.633Z,10.23
2019-05-15T23:38:41.738Z,10.26
2019-05-15T23:41:08.812Z,10.30
2019-05-15T23:43:35.789Z,10.29
2019-05-15T23:46:03.021Z,10.30
2019-05-15T23:48:30.308Z,10.34
2019-05-15T23:50:59.208Z,10.36
2019-05-15T23:53:28.647Z,10.34
2019-05-15T23:55:54.759Z,10.36
2019-05-15T23:58:21.507Z,10.40
